createdAt,value
2022-11-04T00:01:18.583Z,0.98
2022-11-04T00:03:49.072Z,2.05
2022-11-04T00:06:20.866Z,3.30
2022-11-04T00:08:54.663Z,2.55
2022-11-04T00:11:42.373Z,5.63
2022-11-04T00:14:12.538Z,3.05
2022-11-04T00:16:58.180Z,3.50
2022-11-04T00:19:28.350Z,6.82
2022-11-04T00:22:14.510Z,7.10
2022-11-04T00:24:44.761Z,7.75
2022-11-04T00:27:36.258Z,6.00
2022-11-04T00:30:13.150Z,6.38
2022-11-04T00:32:59.238Z,0.13
2022-11-04T00:35:31.954Z,3.08
2022-11-04T00:37:59.442Z,1.13
2022-11-04T00:40:35.760Z,0.93
2022-11-04T00:43:05.506Z,1.92
2022-11-04T00:45:38.156Z,3.55
2022-11-04T00:48:08.906Z,1.33
2022-11-04T00:50:44.373Z,4.25
2022-11-04T00:53:14.661Z,2.58
2022-11-04T00:56:10.101Z,0.70
2022-11-04T00:58:37.664Z,2.45
2022-11-04T01:01:15.641Z,2.08
2022-11-04T01:03:45.094Z,2.13
2022-11-04T01:06:14.967Z,3.92
2022-11-04T01:08:45.339Z,3.83
2022-11-04T01:11:16.715Z,1.48
2022-11-04T01:13:44.202Z,0.88
2022-11-04T01:16:13.252Z,1.98
2022-11-04T01:18:41.730Z,1.10
2022-11-04T01:21:19.446Z,1.52
2022-11-04T01:24:04.580Z,2.45
2022-11-04T01:26:35.837Z,4.18
2022-11-04T01:29:10.168Z,1.55
2022-11-04T01:31:37.617Z,2.15
2022-11-04T01:34:07.691Z,2.28
2022-11-04T01:36:35.212Z,3.00
2022-11-04T01:39:08.024Z,3.42
2022-11-04T01:41:38.876Z,4.57
2022-11-04T01:44:48.277Z,3.05
2022-11-04T01:47:27.944Z,4.45
2022-11-04T01:50:00.793Z,3.90
2022-11-04T01:52:40.805Z,1.52
2022-11-04T01:55:23.070Z,3.08
2022-11-04T01:57:55.193Z,1.65
2022-11-04T02:00:25.374Z,2.67
2022-11-04T02:03:10.374Z,2.20
2022-11-04T02:05:58.351Z,1.50
2022-11-04T02:08:26.419Z,7.03
2022-11-04T02:11:08.430Z,4.57
2022-11-04T02:13:36.980Z,2.30
2022-11-04T02:16:33.983Z,1.50
2022-11-04T02:19:35.791Z,1.20
2022-11-04T02:22:37.466Z,1.92
2022-11-04T02:25:14.665Z,0.95
2022-11-04T02:28:13.818Z,2.50
2022-11-04T02:30:54.518Z,3.40
2022-11-04T02:33:34.290Z,2.33
2022-11-04T02:36:21.644Z,4.93
2022-11-04T02:38:57.995Z,2.10
2022-11-04T02:41:38.288Z,2.13
2022-11-04T02:44:24.925Z,3.80
2022-11-04T02:47:28.377Z,2.33
2022-11-04T02:50:15.353Z,1.15
2022-11-04T02:53:03.092Z,0.85
2022-11-04T02:55:39.686Z,1.15
2022-11-04T02:58:16.261Z,3.20
2022-11-04T03:00:57.909Z,1.50
2022-11-04T03:03:43.346Z,2.45
2022-11-04T03:06:28.085Z,1.35
2022-11-04T03:08:58.097Z,2.78
2022-11-04T03:11:32.149Z,2.40
2022-11-04T03:14:19.807Z,1.65
2022-11-04T03:16:54.435Z,2.22
2022-11-04T03:19:43.801Z,1.48
2022-11-04T03:22:25.078Z,1.23
2022-11-04T03:24:53.412Z,2.08
2022-11-04T03:27:25.208Z,1.45
2022-11-04T03:30:01.243Z,2.15
2022-11-04T03:32:31.479Z,1.98
2022-11-04T03:35:00.000Z,1.88
2022-11-04T03:37:31.821Z,2.80
2022-11-04T03:39:59.318Z,0.95
2022-11-04T03:42:31.296Z,7.15
2022-11-04T03:44:59.856Z,3.85
2022-11-04T03:47:30.052Z,2.22
2022-11-04T03:50:10.565Z,2.33
2022-11-04T03:52:40.387Z,4.63
2022-11-04T03:55:10.141Z,2.65
2022-11-04T03:57:54.662Z,4.32
2022-11-04T04:00:38.683Z,5.88
2022-11-04T04:03:27.346Z,7.97
2022-11-04T04:06:14.075Z,2.83
2022-11-04T04:08:52.255Z,2.05
2022-11-04T04:11:57.254Z,0.10
2022-11-04T04:14:40.502Z,7.32
2022-11-04T04:17:42.024Z,2.95
2022-11-04T04:20:23.345Z,6.25
2022-11-04T04:23:30.143Z,3.60
2022-11-04T04:26:21.249Z,3.22
2022-11-04T04:28:50.842Z,2.88
2022-11-04T04:31:40.648Z,0.15
2022-11-04T04:34:09.006Z,1.98
2022-11-04T04:36:45.845Z,7.50
2022-11-04T04:42:23.619Z,2.97
2022-11-04T04:45:04.025Z,2.92
2022-11-04T04:47:48.053Z,1.75
2022-11-04T04:50:28.889Z,1.25
2022-11-04T04:52:58.816Z,4.88
2022-11-04T04:55:43.018Z,3.97
2022-11-04T04:58:10.744Z,3.17
2022-11-04T05:00:47.512Z,2.63
2022-11-04T05:03:31.812Z,1.50
2022-11-04T05:06:03.972Z,1.85
2022-11-04T05:08:35.571Z,3.70
2022-11-04T05:11:13.728Z,4.25
2022-11-04T05:13:41.252Z,3.63
2022-11-04T05:16:11.725Z,1.58
2022-11-04T05:18:39.390Z,3.90
2022-11-04T05:21:11.955Z,3.33
2022-11-04T05:23:44.877Z,5.45
2022-11-04T05:26:21.772Z,3.67
2022-11-04T05:28:54.389Z,5.85
2022-11-04T05:31:30.824Z,5.70
2022-11-04T05:34:14.009Z,4.10
2022-11-04T05:36:41.407Z,3.40
2022-11-04T05:39:16.974Z,3.45
2022-11-04T05:41:52.289Z,2.45
2022-11-04T05:44:24.149Z,3.05
2022-11-04T05:46:56.101Z,4.22
2022-11-04T05:49:40.129Z,2.15
2022-11-04T05:52:18.653Z,4.07
2022-11-04T05:54:48.444Z,3.35
2022-11-04T05:57:37.044Z,5.25
2022-11-04T06:00:14.341Z,3.28
2022-11-04T06:02:44.473Z,3.10
2022-11-04T06:05:14.826Z,3.28
2022-11-04T06:07:43.292Z,2.45
2022-11-04T06:10:28.563Z,2.83
2022-11-04T06:12:57.917Z,2.05
2022-11-04T06:15:40.531Z,4.95
2022-11-04T06:18:08.411Z,2.50
2022-11-04T06:20:53.328Z,1.98
2022-11-04T06:23:23.287Z,4.47
2022-11-04T06:26:42.961Z,1.15
2022-11-04T06:29:04.195Z,2.40
2022-11-04T06:31:43.395Z,2.42
2022-11-04T06:34:15.684Z,3.65
2022-11-04T06:36:43.421Z,2.38
2022-11-04T06:39:12.918Z,1.33
2022-11-04T06:41:47.465Z,3.35
2022-11-04T06:44:18.807Z,1.75
2022-11-04T06:46:50.398Z,2.92
2022-11-04T06:49:23.255Z,4.55
2022-11-04T06:51:52.974Z,1.40
2022-11-04T06:54:27.495Z,1.67
2022-11-04T06:57:01.893Z,1.58
2022-11-04T06:59:35.956Z,1.77
2022-11-04T07:02:09.878Z,3.75
2022-11-04T07:04:37.913Z,1.42
2022-11-04T07:07:08.665Z,2.53
2022-11-04T07:09:40.202Z,1.20
2022-11-04T07:12:23.291Z,2.45
2022-11-04T07:14:51.746Z,3.47
2022-11-04T07:17:29.122Z,2.38
2022-11-04T07:19:59.278Z,1.73
2022-11-04T07:22:29.234Z,4.57
2022-11-04T07:24:56.735Z,3.53
2022-11-04T07:27:30.611Z,3.80
2022-11-04T07:30:01.012Z,3.70
2022-11-04T07:32:34.749Z,2.17
2022-11-04T07:35:09.010Z,3.13
2022-11-04T07:37:36.453Z,2.47
2022-11-04T07:40:07.368Z,4.00
2022-11-04T07:42:44.710Z,3.90
2022-11-04T07:45:18.002Z,3.30
2022-11-04T07:47:45.413Z,2.67
2022-11-04T07:50:16.432Z,5.03
2022-11-04T07:52:46.206Z,3.65
2022-11-04T07:55:18.612Z,3.58
2022-11-04T07:57:50.647Z,3.22
2022-11-04T08:00:23.312Z,3.55
2022-11-04T08:02:56.500Z,2.95
2022-11-04T08:05:30.423Z,4.57
2022-11-04T08:08:24.060Z,1.90
2022-11-04T08:11:03.395Z,3.72
2022-11-04T08:13:42.623Z,7.30
2022-11-04T08:16:34.427Z,3.35
2022-11-04T08:19:32.351Z,3.53
2022-11-04T08:22:12.381Z,4.00
2022-11-04T08:24:56.508Z,4.38
2022-11-04T08:27:29.978Z,3.50
2022-11-04T08:30:02.145Z,5.90
2022-11-04T08:32:51.937Z,4.57
2022-11-04T08:35:24.530Z,4.13
2022-11-04T08:37:56.302Z,3.28
2022-11-04T08:40:26.110Z,4.57
2022-11-04T08:42:53.391Z,6.13
2022-11-04T08:45:29.979Z,4.55
2022-11-04T08:48:08.223Z,4.32
2022-11-04T08:50:38.427Z,6.07
2022-11-04T08:53:08.434Z,5.68
2022-11-04T08:55:42.677Z,7.60
2022-11-04T08:58:10.501Z,6.55
2022-11-04T09:00:47.886Z,5.65
2022-11-04T09:03:19.630Z,6.20
2022-11-04T09:05:56.873Z,5.03
2022-11-04T09:08:24.632Z,6.10
2022-11-04T09:10:54.793Z,8.05
2022-11-04T09:16:09.569Z,9.80
2022-11-04T09:18:41.411Z,5.43
2022-11-04T09:21:33.426Z,8.13
2022-11-04T09:24:09.979Z,5.22
2022-11-04T09:26:44.781Z,4.35
2022-11-04T09:29:17.952Z,6.10
2022-11-04T09:31:51.222Z,3.30
2022-11-04T09:34:25.300Z,6.47
2022-11-04T09:36:56.380Z,4.88
2022-11-04T09:39:28.199Z,2.17
2022-11-04T09:42:50.542Z,1.80
2022-11-04T09:45:22.019Z,4.25
2022-11-04T09:48:03.072Z,3.35
2022-11-04T09:51:53.118Z,4.25
2022-11-04T09:54:14.740Z,6.15
2022-11-04T09:56:51.553Z,3.92
2022-11-04T09:59:28.005Z,4.30
2022-11-04T10:02:34.883Z,5.15
2022-11-04T10:05:42.373Z,3.35
2022-11-04T10:08:25.173Z,4.03
2022-11-04T10:11:10.922Z,4.88
2022-11-04T10:14:13.167Z,4.40
2022-11-04T10:16:59.027Z,2.15
2022-11-04T10:19:45.285Z,3.15
2022-11-04T10:22:33.988Z,4.18
2022-11-04T10:25:26.161Z,3.22
2022-11-04T10:27:59.493Z,2.35
2022-11-04T10:30:29.688Z,6.45
2022-11-04T10:33:25.703Z,3.08
2022-11-04T10:36:29.494Z,3.08
2022-11-04T10:39:02.969Z,2.60
2022-11-04T10:41:48.977Z,3.67
2022-11-04T10:44:27.827Z,3.60
2022-11-04T10:47:34.236Z,4.00
2022-11-04T10:51:08.174Z,5.25
2022-11-04T10:53:31.467Z,2.35
2022-11-04T10:56:19.900Z,4.65
2022-11-04T10:58:49.732Z,5.47
2022-11-04T11:01:39.498Z,3.58
2022-11-04T11:04:07.757Z,5.97
2022-11-04T11:06:37.422Z,2.80
2022-11-04T11:09:21.527Z,6.03
2022-11-04T11:11:51.787Z,2.88
2022-11-04T11:14:32.256Z,6.07
2022-11-04T11:17:28.395Z,3.92
2022-11-04T11:20:25.672Z,5.60
2022-11-04T11:22:54.490Z,4.35
2022-11-04T11:25:37.148Z,3.40
2022-11-04T11:28:11.082Z,4.22
2022-11-04T11:30:46.488Z,3.95
2022-11-04T11:33:35.894Z,6.70
2022-11-04T11:36:28.680Z,4.63
2022-11-04T11:38:57.037Z,1.77
2022-11-04T11:41:36.573Z,3.42
2022-11-04T11:44:31.758Z,3.03
2022-11-04T11:47:21.873Z,3.88
2022-11-04T11:50:18.131Z,5.18
2022-11-04T11:52:47.464Z,2.75
2022-11-04T11:55:29.048Z,3.67
2022-11-04T12:01:22.107Z,4.10
2022-11-04T12:10:50.622Z,4.10
2022-11-04T12:13:36.529Z,2.45
2022-11-04T12:16:30.584Z,2.85
2022-11-04T12:19:20.945Z,2.05
2022-11-04T12:22:08.658Z,4.43
2022-11-04T12:24:39.944Z,2.83
2022-11-04T12:27:42.178Z,2.70
2022-11-04T12:30:29.818Z,4.18
2022-11-04T12:33:28.785Z,4.15
2022-11-04T12:36:19.504Z,6.10
2022-11-04T12:39:14.055Z,8.77
2022-11-04T12:42:32.829Z,6.70
2022-11-04T12:45:31.835Z,4.80
2022-11-04T12:48:07.844Z,7.10
2022-11-04T12:50:54.544Z,4.28
2022-11-04T12:54:12.701Z,6.15
2022-11-04T12:56:43.528Z,5.93
2022-11-04T12:59:31.636Z,6.03
2022-11-04T13:02:30.161Z,5.40
2022-11-04T13:05:36.484Z,6.10
2022-11-04T13:08:22.017Z,10.20
2022-11-04T13:11:24.083Z,7.60
2022-11-04T13:14:12.391Z,5.70
2022-11-04T13:16:51.646Z,5.85
2022-11-04T13:19:31.684Z,6.82
2022-11-04T13:22:10.583Z,6.03
2022-11-04T13:24:40.573Z,5.20
2022-11-04T13:27:29.932Z,5.80
2022-11-04T13:30:05.909Z,6.63
2022-11-04T13:32:41.869Z,6.93
2022-11-04T13:35:41.297Z,4.28
2022-11-04T13:38:17.173Z,5.30
2022-11-04T13:41:21.355Z,5.03
2022-11-04T13:43:55.282Z,7.15
2022-11-04T13:46:30.958Z,6.80
2022-11-04T13:49:00.225Z,8.25
2022-11-04T13:51:46.218Z,4.40
2022-11-04T13:54:36.354Z,3.88
2022-11-04T13:57:11.261Z,5.30
2022-11-04T13:59:45.429Z,5.63
2022-11-04T14:02:13.054Z,4.68
2022-11-04T14:04:42.767Z,4.57
2022-11-04T14:07:19.913Z,5.28
2022-11-04T14:09:55.700Z,6.07
2022-11-04T14:12:32.730Z,5.22
2022-11-04T14:15:10.697Z,4.78
2022-11-04T14:17:43.610Z,5.20
2022-11-04T14:20:32.556Z,7.13
2022-11-04T14:23:08.780Z,7.15
2022-11-04T14:25:40.461Z,6.07
2022-11-04T14:28:10.772Z,5.20
2022-11-04T14:33:36.791Z,6.20
2022-11-04T14:36:33.099Z,6.28
2022-11-04T14:39:11.074Z,4.78
2022-11-04T14:41:48.209Z,6.65
2022-11-04T14:44:25.952Z,6.60
2022-11-04T14:46:57.725Z,4.45
2022-11-04T14:49:45.441Z,5.38
2022-11-04T14:52:24.022Z,5.03
2022-11-04T14:56:10.951Z,6.00
2022-11-04T14:58:27.474Z,8.55
2022-11-04T15:01:13.990Z,4.70
2022-11-04T15:04:11.400Z,5.60
2022-11-04T15:06:56.439Z,3.80
2022-11-04T15:09:28.681Z,5.00
2022-11-04T15:12:39.606Z,5.05
2022-11-04T15:15:30.309Z,5.68
2022-11-04T15:18:13.718Z,6.07
2022-11-04T15:21:00.793Z,5.30
2022-11-04T15:23:58.336Z,6.15
2022-11-04T15:26:37.084Z,5.78
2022-11-04T15:29:13.346Z,2.55
2022-11-04T15:31:54.946Z,4.72
2022-11-04T15:34:29.776Z,4.50
2022-11-04T15:37:32.859Z,4.85
2022-11-04T15:40:37.668Z,4.35
2022-11-04T15:43:08.453Z,4.60
2022-11-04T15:46:07.453Z,5.70
2022-11-04T15:48:38.175Z,4.78
2022-11-04T15:51:24.929Z,3.47
2022-11-04T15:54:06.194Z,4.30
2022-11-04T15:56:42.999Z,5.70
2022-11-04T15:59:20.141Z,6.05
2022-11-04T16:01:50.691Z,5.03
2022-11-04T16:04:22.581Z,3.20
2022-11-04T16:07:05.846Z,6.43
2022-11-04T16:09:50.650Z,5.60
2022-11-04T16:12:35.040Z,4.45
2022-11-04T16:15:06.650Z,5.60
2022-11-04T16:17:49.167Z,4.32
2022-11-04T16:20:23.813Z,4.85
2022-11-04T16:23:05.565Z,4.22
2022-11-04T16:28:31.799Z,3.53
2022-11-04T16:31:32.004Z,4.65
2022-11-04T16:34:10.965Z,5.18
2022-11-04T16:37:04.164Z,3.83
2022-11-04T16:39:34.855Z,2.47
2022-11-04T16:42:06.746Z,2.63
2022-11-04T16:44:35.549Z,4.72
2022-11-04T16:47:10.400Z,4.35
2022-11-04T16:49:38.070Z,6.05
2022-11-04T16:52:23.940Z,5.22
2022-11-04T16:54:51.358Z,4.40
2022-11-04T16:57:25.815Z,3.45
2022-11-04T16:59:57.394Z,3.67
2022-11-04T17:02:38.046Z,4.95
2022-11-04T17:05:06.119Z,6.97
2022-11-04T17:07:51.726Z,5.50
2022-11-04T17:10:28.520Z,4.82
2022-11-04T17:12:57.306Z,5.28
2022-11-04T17:15:27.044Z,6.00
2022-11-04T17:17:54.685Z,5.07
2022-11-04T17:20:21.999Z,4.75
2022-11-04T17:22:58.474Z,5.10
2022-11-04T17:25:29.845Z,5.15
2022-11-04T17:27:59.597Z,6.10
2022-11-04T17:30:26.779Z,6.65
2022-11-04T17:32:53.873Z,6.40
2022-11-04T17:35:26.917Z,4.78
2022-11-04T17:37:56.742Z,4.25
2022-11-04T17:40:30.563Z,7.28
2022-11-04T17:43:17.013Z,6.10
2022-11-04T17:46:09.739Z,4.90
2022-11-04T17:48:39.378Z,4.90
2022-11-04T17:51:07.983Z,4.97
2022-11-04T17:53:35.199Z,7.57
2022-11-04T17:56:05.541Z,6.65
2022-11-04T18:01:05.653Z,6.28
2022-11-04T18:03:33.295Z,5.20
2022-11-04T18:06:08.762Z,4.95
2022-11-04T18:08:38.779Z,6.13
2022-11-04T18:11:13.602Z,10.15
2022-11-04T18:13:42.824Z,5.40
2022-11-04T18:16:18.333Z,6.35
2022-11-04T18:18:45.651Z,5.30
2022-11-04T18:21:15.033Z,8.85
2022-11-04T18:23:44.549Z,4.85
2022-11-04T18:26:12.789Z,7.90
2022-11-04T18:28:42.170Z,5.35
2022-11-04T18:31:20.418Z,8.25
2022-11-04T18:33:47.992Z,6.38
2022-11-04T18:36:15.205Z,4.93
2022-11-04T18:38:42.684Z,6.32
2022-11-04T18:41:12.752Z,6.05
2022-11-04T18:43:42.599Z,5.25
2022-11-04T18:46:14.825Z,6.65
2022-11-04T18:48:51.765Z,6.90
2022-11-04T18:51:24.759Z,7.07
2022-11-04T18:53:52.200Z,5.00
2022-11-04T18:56:25.848Z,6.40
2022-11-04T18:58:53.093Z,5.40
2022-11-04T19:01:33.309Z,4.18
2022-11-04T19:04:01.495Z,5.10
2022-11-04T19:06:32.194Z,5.53
2022-11-04T19:09:31.981Z,5.68
2022-11-04T19:12:14.739Z,5.35
2022-11-04T19:14:42.014Z,5.60
2022-11-04T19:17:09.785Z,6.13
2022-11-04T19:19:37.221Z,4.82
2022-11-04T19:22:10.714Z,8.65
2022-11-04T19:24:38.781Z,8.00
2022-11-04T19:27:08.592Z,4.63
2022-11-04T19:29:35.933Z,8.07
2022-11-04T19:32:13.792Z,7.10
2022-11-04T19:34:42.696Z,5.28
2022-11-04T19:37:12.684Z,5.45
2022-11-04T19:39:40.494Z,4.50
2022-11-04T19:42:32.095Z,7.35
2022-11-04T19:44:59.821Z,7.35
2022-11-04T19:47:27.160Z,5.40
2022-11-04T19:49:58.060Z,6.05
2022-11-04T19:52:28.125Z,3.97
2022-11-04T19:54:57.703Z,4.97
2022-11-04T19:57:27.732Z,5.18
2022-11-04T19:59:54.937Z,4.55
2022-11-04T20:02:25.955Z,4.47
2022-11-04T20:04:58.324Z,5.13
2022-11-04T20:07:33.230Z,8.20
2022-11-04T20:10:09.479Z,5.72
2022-11-04T20:12:55.750Z,8.32
2022-11-04T20:15:23.535Z,6.38
2022-11-04T20:17:50.817Z,4.70
2022-11-04T20:20:25.268Z,5.40
2022-11-04T20:22:52.651Z,5.07
2022-11-04T20:25:25.060Z,4.28
2022-11-04T20:27:52.655Z,6.82
2022-11-04T20:30:24.147Z,6.03
2022-11-04T20:32:54.906Z,4.63
2022-11-04T20:35:27.645Z,4.55
2022-11-04T20:38:00.808Z,5.00
2022-11-04T20:40:28.175Z,5.47
2022-11-04T20:42:56.166Z,5.53
2022-11-04T20:45:24.096Z,6.03
2022-11-04T20:47:53.695Z,5.13
2022-11-04T20:50:25.415Z,5.50
2022-11-04T20:52:52.732Z,6.00
2022-11-04T20:55:20.447Z,6.63
2022-11-04T20:57:47.722Z,5.45
2022-11-04T21:00:15.704Z,8.00
2022-11-04T21:02:47.859Z,6.53
2022-11-04T21:05:15.694Z,5.30
2022-11-04T21:07:43.264Z,6.95
2022-11-04T21:10:12.469Z,5.57
2022-11-04T21:12:40.665Z,6.75
2022-11-04T21:15:34.982Z,5.30
2022-11-04T21:18:02.735Z,8.05
2022-11-04T21:20:30.368Z,4.07
2022-11-04T21:22:57.503Z,5.00
2022-11-04T21:25:24.814Z,7.97
2022-11-04T21:27:53.710Z,8.38
2022-11-04T21:30:34.211Z,6.35
2022-11-04T21:33:02.202Z,8.73
2022-11-04T21:35:43.404Z,6.78
2022-11-04T21:38:17.638Z,7.25
2022-11-04T21:40:45.857Z,7.78
2022-11-04T21:43:14.535Z,6.40
2022-11-04T21:45:42.059Z,5.53
2022-11-04T21:48:13.669Z,7.15
2022-11-04T21:50:46.450Z,7.22
2022-11-04T21:53:15.673Z,8.35
2022-11-04T21:55:45.308Z,7.70
2022-11-04T21:58:13.683Z,5.45
2022-11-04T22:00:41.092Z,6.95
2022-11-04T22:03:10.662Z,11.70
2022-11-04T22:05:38.296Z,6.57
2022-11-04T22:08:18.671Z,6.90
2022-11-04T22:10:46.348Z,6.57
2022-11-04T22:13:13.964Z,6.35
2022-11-04T22:16:20.630Z,13.40
2022-11-04T22:18:46.770Z,9.95
2022-11-04T22:21:16.852Z,13.32
2022-11-04T22:23:44.679Z,17.50
2022-11-04T22:26:27.345Z,14.30
2022-11-04T22:31:30.540Z,17.95
2022-11-04T22:33:59.569Z,16.52
2022-11-04T22:36:27.918Z,12.32
2022-11-04T22:38:56.020Z,9.80
2022-11-04T22:41:28.140Z,70.20
2022-11-04T22:43:59.391Z,31.50
2022-11-04T22:46:31.392Z,12.13
2022-11-04T22:48:59.886Z,11.88
2022-11-04T22:51:34.797Z,12.30
2022-11-04T22:54:07.967Z,8.70
2022-11-04T22:56:37.631Z,10.52
2022-11-04T22:59:05.245Z,6.53
2022-11-04T23:01:38.259Z,7.07
2022-11-04T23:04:11.970Z,5.95
2022-11-04T23:06:40.214Z,8.27
2022-11-04T23:09:07.537Z,6.80
2022-11-04T23:11:53.436Z,8.63
2022-11-04T23:14:40.786Z,26.70
2022-11-04T23:17:42.417Z,51.00
2022-11-04T23:20:27.740Z,76.40
2022-11-04T23:23:16.111Z,90.25
2022-11-04T23:25:55.582Z,41.72
2022-11-04T23:28:44.165Z,47.90
2022-11-04T23:31:11.669Z,34.58
2022-11-04T23:34:02.121Z,37.42
2022-11-04T23:36:50.100Z,55.95
2022-11-04T23:39:17.254Z,52.70
2022-11-04T23:42:06.475Z,55.35
2022-11-04T23:44:52.755Z,26.30
2022-11-04T23:47:42.010Z,12.05
2022-11-04T23:53:13.906Z,13.05
2022-11-04T23:56:00.116Z,14.07
2022-11-04T23:58:46.081Z,17.15
